Buoy 13983

sailwx.info

Track history (hours):
 
Tides and Currents Weather Stations Pressure Air Temp Water Temp Dewpoint Dewpoint Depression Visibility Wind Speed Wind Dir Waves Ship Positions

Drifting buoy 13983

Last reported at 2014-Feb-11 01:35 UTC. Time now 2014-Oct-23 17:56 UTC.
Position N 31°41' W 069°19'.
Warning: this ship's position is months out of date.

Water temperature 21.0 ° C

Date/timePositionNaut miles runAvg speedWind from/ knotsBaromVisibWave heightAir tempDewpointWater temp
2014-Feb-11 01:35N 31°41' W 069°19'113.3 21.0
2014-Feb-11 01:31N 31°41' W 069°18'1 0.8 21.0
2014-Feb-11 00:51N 31°41' W 069°19'0 0.2 21.0
2014-Feb-11 00:08N 31°41' W 069°18'0 2.0 21.0
2014-Feb-10 23:57N 31°40' W 069°18'1 7.6 21.0
2014-Feb-10 23:53N 31°41' W 069°19'1 2.3 21.0
2014-Feb-10 23:29N 31°40' W 069°19'0 0.0 21.0
2014-Feb-10 22:32N 31°40' W 069°19'1 0.9 21.0
2014-Feb-10 21:37N 31°39' W 069°18'0 0.3 21.0
2014-Feb-10 21:28N 31°39' W 069°18'0 1.0 21.0
2014-Feb-10 21:25N 31°39' W 069°18'1 7.4 21.0
2014-Feb-10 21:18N 31°39' W 069°17'0 0.0 21.0
2014-Feb-10 19:56N 31°39' W 069°17'0 0.0 21.0
2014-Feb-10 19:49N 31°39' W 069°17'119.7 21.0
2014-Feb-10 19:46N 31°39' W 069°18'3 1.9 21.0
2014-Feb-10 18:09N 31°39' W 069°15'0 0.0 21.0
2014-Feb-10 18:00N 31°39' W 069°15'0 0.0 21.0
2014-Feb-10 16:26N 31°39' W 069°15'1 1.5 21.0
2014-Feb-10 15:58N 31°39' W 069°14'0 0.0 21.0
2014-Feb-10 15:30N 31°39' W 069°14'0 2.8 21.0
2014-Feb-10 15:25N 31°40' W 069°14'0 0.0 21.0
2014-Feb-10 15:22N 31°40' W 069°14'0 0.0 21.0
2014-Feb-10 15:16N 31°40' W 069°14'1 1.1 21.0
2014-Feb-10 14:20N 31°40' W 069°15'1 1.3 21.0
2014-Feb-10 13:49N 31°41' W 069°14'2 1.4 21.0
2014-Feb-10 12:35N 31°41' W 069°12'0 0.0 21.0
2014-Feb-10 11:57N 31°41' W 069°12'295.4 21.0
2014-Feb-10 11:56N 31°42' W 069°13'219.1 21.0
2014-Feb-10 11:51N 31°41' W 069°12'2 1.0 21.0
2014-Feb-10 10:20N 31°42' W 069°13'0 0.0 21.0
2014-Feb-10 10:14N 31°42' W 069°13'1 4.0 21.0
2014-Feb-10 10:05N 31°43' W 069°13'0 0.0 21.0
2014-Feb-10 10:00N 31°43' W 069°13'1 0.8 21.0
2014-Feb-10 08:33N 31°43' W 069°15'1 3.9 21.0
2014-Feb-10 08:24N 31°43' W 069°14'0 0.0 21.0
2014-Feb-10 08:23N 31°43' W 069°14'114.4 21.0
2014-Feb-10 08:17N 31°44' W 069°15'0 0.1 21.0
2014-Feb-10 06:44N 31°44' W 069°15'0 2.8 21.0
2014-Feb-10 06:36N 31°44' W 069°16'0 0.0 21.0
2014-Feb-10 05:01N 31°44' W 069°16'1 0.4 21.0
2014-Feb-10 03:33N 31°44' W 069°15'0 0.0 21.0
2014-Feb-10 03:06N 31°44' W 069°15'0 1.0 21.0
2014-Feb-10 02:51N 31°44' W 069°15'0 0.4 21.0
2014-Feb-10 02:00N 31°44' W 069°15'0 0.0 21.0
2014-Feb-10 01:57N 31°44' W 069°15'0 1.8 21.0
2014-Feb-10 01:50N 31°44' W 069°15'0 0.0 21.0
2014-Feb-10 01:26N 31°44' W 069°15'0 0.5 21.0
2014-Feb-10 01:13N 31°44' W 069°15'0 1.2 21.0
2014-Feb-10 01:07N 31°44' W 069°15'0 0.5 21.0
2014-Feb-10 00:40N 31°44' W 069°15'0 0.7 21.0
2014-Feb-10 00:18N 31°44' W 069°15'0 0.0 21.0
2014-Feb-09 23:43N 31°44' W 069°15'0 0.8 21.0
2014-Feb-09 23:39N 31°44' W 069°15'0 0.0 21.0
2014-Feb-09 23:02N 31°44' W 069°15'0 0.3 21.0
2014-Feb-09 22:02N 31°44' W 069°15'1 1.7 21.0
2014-Feb-09 21:39N 31°44' W 069°16'122.0 21.0
2014-Feb-09 21:36N 31°45' W 069°14'0 0.0 21.0
2014-Feb-09 20:20N 31°45' W 069°14'0 0.2 21.0
2014-Feb-09 20:00N 31°45' W 069°14'111.3 21.0
2014-Feb-09 19:56N 31°45' W 069°14'0 0.0 21.0
2014-Feb-09 18:20N 31°45' W 069°14'0 6.2 21.0
2014-Feb-09 18:17N 31°45' W 069°14'114.9 21.0
2014-Feb-09 18:13N 31°46' W 069°13'0 0.0 21.0
2014-Feb-09 16:38N 31°46' W 069°13'1 3.7 21.0
2014-Feb-09 16:18N 31°46' W 069°12'0 0.0 21.0
2014-Feb-09 15:42N 31°46' W 069°12'218.7 21.0
2014-Feb-09 15:34N 31°48' W 069°14'0 0.0 21.0
2014-Feb-09 14:41N 31°48' W 069°14'2 3.1 21.0
2014-Feb-09 14:05N 31°48' W 069°12'428.3 21.0
2014-Feb-09 13:57N 31°52' W 069°11'0 0.0 21.0
2014-Feb-09 13:54N 31°52' W 069°11'0 0.0 21.0
2014-Feb-09 12:18N 31°52' W 069°11'0 0.0 21.0
2014-Feb-09 10:46N 31°52' W 069°11'0 0.0 21.0
2014-Feb-09 10:44N 31°52' W 069°11'1 1.2 21.0
2014-Feb-09 10:17N 31°52' W 069°11'1 9.6 21.0
2014-Feb-09 10:11N 31°53' W 069°11'0 0.0 21.0
2014-Feb-09 10:08N 31°53' W 069°11'0 0.0 21.0
2014-Feb-09 09:06N 31°53' W 069°11'0 9.2 21.0
2014-Feb-09 09:04N 31°53' W 069°12'222.8 21.0
2014-Feb-09 08:59N 31°53' W 069°14'230.6 21.0
2014-Feb-09 08:56N 31°53' W 069°12'0 0.2 21.0
2014-Feb-09 08:34N 31°53' W 069°12'1 8.2 21.0
2014-Feb-09 08:28N 31°54' W 069°13'0 0.0 21.0
2014-Feb-09 08:26N 31°54' W 069°13'0 0.0 21.0
2014-Feb-09 06:54N 31°54' W 069°13'1 0.6 21.0
2014-Feb-09 05:11N 31°54' W 069°14'1 0.5 21.0
2014-Feb-09 03:17N 31°53' W 069°14'0 0.0 21.0
2014-Feb-09 02:20N 31°53' W 069°14'0 0.0 21.0
2014-Feb-09 02:13N 31°53' W 069°14'1 8.1 21.0
2014-Feb-09 02:08N 31°53' W 069°15'0 0.0 21.0
2014-Feb-09 01:39N 31°53' W 069°15'0 0.0 21.0
2014-Feb-09 01:31N 31°53' W 069°15'024.0 21.0
2014-Feb-09 01:30N 31°53' W 069°15'0 0.1 21.0
2014-Feb-09 00:40N 31°53' W 069°15'0 0.6 21.0
2014-Feb-08 23:55N 31°52' W 069°14'0 0.0 21.0
2014-Feb-08 23:32N 31°52' W 069°14'1 1.0 21.0
2014-Feb-08 22:26N 31°53' W 069°13'1 1.2 21.0
2014-Feb-08 21:50N 31°53' W 069°13'110.8 21.0
2014-Feb-08 21:47N 31°53' W 069°13'0 0.1 21.0
2014-Feb-08 20:46N 31°53' W 069°13'2 2.9 21.0
2014-Feb-08 20:12N 31°53' W 069°12'0 0.0 21.0
2014-Feb-08 20:06N 31°53' W 069°12'0 0.0 21.0
2014-Feb-08 18:31N 31°53' W 069°12'127.0 21.0
2014-Feb-08 18:29N 31°54' W 069°12'0 0.0 21.0
2014-Feb-08 18:19N 31°54' W 069°12'0 0.0 21.0
2014-Feb-08 16:49N 31°54' W 069°12'1 1.1 21.0
2014-Feb-08 15:48N 31°54' W 069°10'0 0.0 21.0
2014-Feb-08 15:03N 31°54' W 069°10'1 1.1 21.0
2014-Feb-08 14:15N 31°55' W 069°11'0 1.8 21.0
2014-Feb-08 14:11N 31°55' W 069°11'1 0.5 21.0
2014-Feb-08 11:16N 31°56' W 069°09'0 4.1 21.0
2014-Feb-08 11:09N 31°56' W 069°09'1 0.9 21.0
2014-Feb-08 10:27N 31°56' W 069°08'117.3 21.0
2014-Feb-08 10:22N 31°56' W 069°10'1 1.9 21.0
2014-Feb-08 09:37N 31°56' W 069°08'0 1.5 21.0
2014-Feb-08 09:30N 31°56' W 069°08'0 3.3 21.0
2014-Feb-08 09:21N 31°56' W 069°08'0 0.0 21.0
2014-Feb-08 08:45N 31°56' W 069°08'214.4 21.0
2014-Feb-08 08:38N 31°56' W 069°06'0 0.0 21.0
2014-Feb-08 07:05N 31°56' W 069°06'1 8.2 21.0
2014-Feb-08 06:57N 31°57' W 069°05'0 0.0 21.0
2014-Feb-08 05:23N 31°57' W 069°05'331.7 21.0
2014-Feb-08 05:17N 31°57' W 069°01'0 0.0 21.0
2014-Feb-08 02:34N 31°57' W 069°01'117.2 21.0
2014-Feb-08 02:29N 31°57' W 068°60'0 0.2 21.0
2014-Feb-08 01:55N 31°57' W 068°60'0 0.0 21.0
2014-Feb-08 01:50N 31°57' W 068°60'0 3.1 21.0
2014-Feb-08 01:47N 31°57' W 068°60'1 1.0 21.0
2014-Feb-08 01:01N 31°57' W 068°59'0 0.9 21.0
2014-Feb-08 00:56N 31°57' W 068°59'120.3 21.0
2014-Feb-08 00:52N 31°58' W 068°58'0 0.0 21.0
2014-Feb-08 00:09N 31°58' W 068°58'0 0.0 21.0
2014-Feb-08 00:03N 31°58' W 068°58'1 0.7 21.0
2014-Feb-07 22:49N 31°59' W 068°57'1 8.5 21.0
2014-Feb-07 22:45N 31°59' W 068°57'0 0.0 21.0
2014-Feb-07 22:25N 31°59' W 068°57'0 1.1 21.0
2014-Feb-07 21:59N 31°59' W 068°56'0 0.0 21.0
2014-Feb-07 21:11N 31°59' W 068°56'2 2.6 21.0
2014-Feb-07 20:22N 32°01' W 068°54'0 0.0 21.0
2014-Feb-07 19:28N 32°01' W 068°54'1 1.2 21.0
2014-Feb-07 18:41N 32°00' W 068°55'1 9.9 21.0
2014-Feb-07 18:35N 32°01' W 068°55'0 0.0 21.0
2014-Feb-07 17:00N 32°01' W 068°55'2 2.0 21.0
2014-Feb-07 16:05N 32°03' W 068°55'110.2 21.0
2014-Feb-07 15:59N 32°02' W 068°55'0 0.0 21.0
2014-Feb-07 15:23N 32°02' W 068°55'2 2.0 21.0
2014-Feb-07 14:37N 32°00' W 068°54'0 0.0 21.0
2014-Feb-07 14:23N 32°00' W 068°54'0 0.0 21.0
2014-Feb-07 14:17N 32°00' W 068°54'0 0.0 21.0
2014-Feb-07 13:43N 32°00' W 068°54'0 0.1 21.0
2014-Feb-07 11:46N 32°00' W 068°54'1 0.6 21.0
2014-Feb-07 10:36N 32°01' W 068°55'1 2.4 21.0
2014-Feb-07 10:09N 31°60' W 068°54'0 0.7 21.0
2014-Feb-07 09:52N 32°00' W 068°54'222.9 21.0
2014-Feb-07 09:48N 31°59' W 068°53'0 0.0 21.0
2014-Feb-07 08:55N 31°59' W 068°53'112.0 21.0
2014-Feb-07 08:52N 31°59' W 068°53'0 0.0 21.0
2014-Feb-07 08:10N 31°59' W 068°53'0 0.0 21.0
2014-Feb-07 07:18N 31°59' W 068°53'113.5 21.0
2014-Feb-07 07:13N 31°60' W 068°52'0 0.0 21.0
2014-Feb-07 07:07N 31°60' W 068°52'0 0.1 21.0
2014-Feb-07 05:32N 31°60' W 068°52'227.5 21.0
2014-Feb-07 05:28N 31°60' W 068°50'0 0.0 21.0
2014-Feb-07 03:39N 31°60' W 068°50'0 0.0 21.0
2014-Feb-07 03:01N 31°60' W 068°50'1 4.9 21.0
2014-Feb-07 02:53N 32°00' W 068°49'0 0.0 21.0
2014-Feb-07 02:15N 32°00' W 068°49'0 0.9 21.0
2014-Feb-07 02:03N 32°00' W 068°49'0 0.0 21.0
2014-Feb-07 01:57N 32°00' W 068°49'0 0.4 21.0
2014-Feb-07 01:22N 32°00' W 068°49'0 0.2 21.0
2014-Feb-07 00:33N 32°00' W 068°49'0 0.0 21.0
2014-Feb-07 00:21N 32°00' W 068°49'0 0.4 21.0
2014-Feb-06 23:11N 32°00' W 068°48'0 0.0 21.0
2014-Feb-06 22:56N 32°00' W 068°48'1 0.7 21.0
2014-Feb-06 21:36N 32°01' W 068°47'1 8.1 21.0
2014-Feb-06 21:29N 32°01' W 068°49'1 0.8 21.0
2014-Feb-06 20:34N 32°01' W 068°48'0 0.0 21.0
2014-Feb-06 20:31N 32°01' W 068°48'1 1.5 21.0
2014-Feb-06 19:55N 32°01' W 068°49'1 0.9 21.0
2014-Feb-06 18:53N 32°01' W 068°48'0 0.0 21.0
2014-Feb-06 18:48N 32°01' W 068°48'1 0.3 21.0
2014-Feb-06 17:11N 32°01' W 068°48'1 0.8 21.0
2014-Feb-06 16:17N 32°02' W 068°49'1 2.2 21.0
2014-Feb-06 15:42N 32°01' W 068°47'0 0.5 21.0
2014-Feb-06 14:58N 32°02' W 068°47'0 0.5 21.0
2014-Feb-06 14:38N 32°02' W 068°48'116.7 21.0
2014-Feb-06 14:35N 32°01' W 068°47'1 1.5 21.0
2014-Feb-06 14:02N 32°02' W 068°48'1 0.3 21.0
2014-Feb-06 11:54N 32°02' W 068°48'0 0.0 21.0
2014-Feb-06 10:48N 32°02' W 068°48'1 3.6 21.0
2014-Feb-06 10:39N 32°02' W 068°48'0 0.6 21.0
2014-Feb-06 10:17N 32°02' W 068°48'0 2.4 21.0
2014-Feb-06 10:09N 32°01' W 068°48'0 0.0 21.0
2014-Feb-06 09:12N 32°01' W 068°48'0 1.4 21.0
2014-Feb-06 09:05N 32°01' W 068°48'0 3.5 21.0
2014-Feb-06 09:01N 32°01' W 068°48'0 9.8 21.0
2014-Feb-06 08:59N 32°01' W 068°48'0 0.7 21.0
2014-Feb-06 08:31N 32°01' W 068°48'0 0.0 21.0
2014-Feb-06 07:23N 32°01' W 068°48'236.2 21.0
2014-Feb-06 07:19N 32°01' W 068°45'0 0.0 21.0
2014-Feb-05 11:10N 32°01' W 068°45'0 0.8 20.9
2014-Feb-05 10:55N 32°01' W 068°45'0 0.4 20.9
2014-Feb-05 10:39N 32°01' W 068°45'0 7.5 20.9
2014-Feb-05 10:36N 32°00' W 068°45'1 0.6 20.9
2014-Feb-05 09:24N 32°00' W 068°44'0 0.5 20.9
2014-Feb-05 09:18N 32°00' W 068°44'0 0.6 20.9
2014-Feb-05 09:12N 32°00' W 068°44'1 3.5 20.9
2014-Feb-05 08:57N 32°00' W 068°45'2 1.3 20.9
2014-Feb-05 07:36N 31°60' W 068°43'10 0.5 21.0
2014-Feb-04 11:38N 32°06' W 068°35'0 0.6 20.9
2014-Feb-04 11:02N 32°06' W 068°35'0 0.4 20.9
2014-Feb-04 10:01N 32°06' W 068°34'0 0.6 20.9
2014-Feb-04 09:24N 32°06' W 068°34'119.6 20.9
2014-Feb-04 09:21N 32°06' W 068°35'2 1.4 20.9
2014-Feb-04 07:48N 32°06' W 068°33'435.7 20.9
2014-Feb-04 07:42N 32°07' W 068°29'3 0.1 20.9
2014-Feb-03 07:59N 32°07' W 068°26'774.8 20.8
2014-Feb-03 07:53N 32°09' W 068°17'0 0.0 20.8
2014-Feb-02 11:04N 32°09' W 068°17'1 0.6 20.7
2014-Feb-02 10:14N 32°09' W 068°17'1 7.4 20.7
2014-Feb-02 10:09N 32°09' W 068°16'0 0.0 20.7
2014-Feb-02 09:51N 32°09' W 068°16'025.4 20.7
2014-Feb-02 09:50N 32°09' W 068°15'1 0.7 20.7
2014-Feb-02 08:33N 32°10' W 068°15'0 0.0 20.7
2014-Feb-02 08:14N 32°10' W 068°15'0 0.0 20.8
2014-Feb-02 08:06N 32°10' W 068°15'132.6 20.8
2014-Feb-02 08:04N 32°10' W 068°14'0 0.0 20.8
2014-Feb-02 06:31N 32°10' W 068°14'749.2 20.8
2014-Feb-02 06:23N 32°13' W 068°07'0 0.0 20.8
2014-Feb-01 11:32N 32°13' W 068°07'1 0.8 20.6
2014-Feb-01 10:40N 32°13' W 068°06'0 0.4 20.6
2014-Feb-01 10:03N 32°13' W 068°06'015.6 20.6
2014-Feb-01 10:02N 32°13' W 068°05'1 5.1 20.6
2014-Feb-01 09:56N 32°13' W 068°06'1 1.1 20.6
2014-Feb-01 08:52N 32°14' W 068°05'0 0.9 20.6
2014-Feb-01 08:20N 32°14' W 068°04'0 3.6 20.6
2014-Feb-01 08:13N 32°14' W 068°04'6 4.0 20.6
2014-Feb-01 06:42N 32°17' W 067°58'   20.6
Track history (hours):
 
Tides and Currents Weather Stations Pressure Air Temp Water Temp Dewpoint Dewpoint Depression Visibility Wind Speed Wind Dir Waves Ship Positions

Drifting buoy 13983

Last reported at 2014-Feb-11 01:35 UTC. Time now 2014-Oct-23 17:56 UTC.
Position N 31°41' W 069°19'.
Warning: this ship's position is months out of date.

Water temperature 21.0 ° C

Date/timePositionNaut miles runAvg speedWind from/ knotsBaromVisibWave heightAir tempDewpointWater temp
2014-Feb-11 01:35N 31°41' W 069°19'113.3 21.0
2014-Feb-11 01:31N 31°41' W 069°18'1 0.8 21.0
2014-Feb-11 00:51N 31°41' W 069°19'0 0.2 21.0
2014-Feb-11 00:08N 31°41' W 069°18'0 2.0 21.0
2014-Feb-10 23:57N 31°40' W 069°18'1 7.6 21.0
2014-Feb-10 23:53N 31°41' W 069°19'1 2.3 21.0
2014-Feb-10 23:29N 31°40' W 069°19'0 0.0 21.0
2014-Feb-10 22:32N 31°40' W 069°19'1 0.9 21.0
2014-Feb-10 21:37N 31°39' W 069°18'0 0.3 21.0
2014-Feb-10 21:28N 31°39' W 069°18'0 1.0 21.0
2014-Feb-10 21:25N 31°39' W 069°18'1 7.4 21.0
2014-Feb-10 21:18N 31°39' W 069°17'0 0.0 21.0
2014-Feb-10 19:56N 31°39' W 069°17'0 0.0 21.0
2014-Feb-10 19:49N 31°39' W 069°17'119.7 21.0
2014-Feb-10 19:46N 31°39' W 069°18'3 1.9 21.0
2014-Feb-10 18:09N 31°39' W 069°15'0 0.0 21.0
2014-Feb-10 18:00N 31°39' W 069°15'0 0.0 21.0
2014-Feb-10 16:26N 31°39' W 069°15'1 1.5 21.0
2014-Feb-10 15:58N 31°39' W 069°14'0 0.0 21.0
2014-Feb-10 15:30N 31°39' W 069°14'0 2.8 21.0
2014-Feb-10 15:25N 31°40' W 069°14'0 0.0 21.0
2014-Feb-10 15:22N 31°40' W 069°14'0 0.0 21.0
2014-Feb-10 15:16N 31°40' W 069°14'1 1.1 21.0
2014-Feb-10 14:20N 31°40' W 069°15'1 1.3 21.0
2014-Feb-10 13:49N 31°41' W 069°14'2 1.4 21.0
2014-Feb-10 12:35N 31°41' W 069°12'0 0.0 21.0
2014-Feb-10 11:57N 31°41' W 069°12'295.4 21.0
2014-Feb-10 11:56N 31°42' W 069°13'219.1 21.0
2014-Feb-10 11:51N 31°41' W 069°12'2 1.0 21.0
2014-Feb-10 10:20N 31°42' W 069°13'0 0.0 21.0
2014-Feb-10 10:14N 31°42' W 069°13'1 4.0 21.0
2014-Feb-10 10:05N 31°43' W 069°13'0 0.0 21.0
2014-Feb-10 10:00N 31°43' W 069°13'1 0.8 21.0
2014-Feb-10 08:33N 31°43' W 069°15'1 3.9 21.0
2014-Feb-10 08:24N 31°43' W 069°14'0 0.0 21.0
2014-Feb-10 08:23N 31°43' W 069°14'114.4 21.0
2014-Feb-10 08:17N 31°44' W 069°15'0 0.1 21.0
2014-Feb-10 06:44N 31°44' W 069°15'0 2.8 21.0
2014-Feb-10 06:36N 31°44' W 069°16'0 0.0 21.0
2014-Feb-10 05:01N 31°44' W 069°16'1 0.4 21.0
2014-Feb-10 03:33N 31°44' W 069°15'0 0.0 21.0
2014-Feb-10 03:06N 31°44' W 069°15'0 1.0 21.0
2014-Feb-10 02:51N 31°44' W 069°15'0 0.4 21.0
2014-Feb-10 02:00N 31°44' W 069°15'0 0.0 21.0
2014-Feb-10 01:57N 31°44' W 069°15'0 1.8 21.0
2014-Feb-10 01:50N 31°44' W 069°15'0 0.0 21.0
2014-Feb-10 01:26N 31°44' W 069°15'0 0.5 21.0
2014-Feb-10 01:13N 31°44' W 069°15'0 1.2 21.0
2014-Feb-10 01:07N 31°44' W 069°15'0 0.5 21.0
2014-Feb-10 00:40N 31°44' W 069°15'0 0.7 21.0
2014-Feb-10 00:18N 31°44' W 069°15'0 0.0 21.0
2014-Feb-09 23:43N 31°44' W 069°15'0 0.8 21.0
2014-Feb-09 23:39N 31°44' W 069°15'0 0.0 21.0
2014-Feb-09 23:02N 31°44' W 069°15'0 0.3 21.0
2014-Feb-09 22:02N 31°44' W 069°15'1 1.7 21.0
2014-Feb-09 21:39N 31°44' W 069°16'122.0 21.0
2014-Feb-09 21:36N 31°45' W 069°14'0 0.0 21.0
2014-Feb-09 20:20N 31°45' W 069°14'0 0.2 21.0
2014-Feb-09 20:00N 31°45' W 069°14'111.3 21.0
2014-Feb-09 19:56N 31°45' W 069°14'0 0.0 21.0
2014-Feb-09 18:20N 31°45' W 069°14'0 6.2 21.0
2014-Feb-09 18:17N 31°45' W 069°14'114.9 21.0
2014-Feb-09 18:13N 31°46' W 069°13'0 0.0 21.0
2014-Feb-09 16:38N 31°46' W 069°13'1 3.7 21.0
2014-Feb-09 16:18N 31°46' W 069°12'0 0.0 21.0
2014-Feb-09 15:42N 31°46' W 069°12'218.7 21.0
2014-Feb-09 15:34N 31°48' W 069°14'0 0.0 21.0
2014-Feb-09 14:41N 31°48' W 069°14'2 3.1 21.0
2014-Feb-09 14:05N 31°48' W 069°12'428.3 21.0
2014-Feb-09 13:57N 31°52' W 069°11'0 0.0 21.0
2014-Feb-09 13:54N 31°52' W 069°11'0 0.0 21.0
2014-Feb-09 12:18N 31°52' W 069°11'0 0.0 21.0
2014-Feb-09 10:46N 31°52' W 069°11'0 0.0 21.0
2014-Feb-09 10:44N 31°52' W 069°11'1 1.2 21.0
2014-Feb-09 10:17N 31°52' W 069°11'1 9.6 21.0
2014-Feb-09 10:11N 31°53' W 069°11'0 0.0 21.0
2014-Feb-09 10:08N 31°53' W 069°11'0 0.0 21.0
2014-Feb-09 09:06N 31°53' W 069°11'0 9.2 21.0
2014-Feb-09 09:04N 31°53' W 069°12'222.8 21.0
2014-Feb-09 08:59N 31°53' W 069°14'230.6 21.0
2014-Feb-09 08:56N 31°53' W 069°12'0 0.2 21.0
2014-Feb-09 08:34N 31°53' W 069°12'1 8.2 21.0
2014-Feb-09 08:28N 31°54' W 069°13'0 0.0 21.0
2014-Feb-09 08:26N 31°54' W 069°13'0 0.0 21.0
2014-Feb-09 06:54N 31°54' W 069°13'1 0.6 21.0
2014-Feb-09 05:11N 31°54' W 069°14'1 0.5 21.0
2014-Feb-09 03:17N 31°53' W 069°14'0 0.0 21.0
2014-Feb-09 02:20N 31°53' W 069°14'0 0.0 21.0
2014-Feb-09 02:13N 31°53' W 069°14'1 8.1 21.0
2014-Feb-09 02:08N 31°53' W 069°15'0 0.0 21.0
2014-Feb-09 01:39N 31°53' W 069°15'0 0.0 21.0
2014-Feb-09 01:31N 31°53' W 069°15'024.0 21.0
2014-Feb-09 01:30N 31°53' W 069°15'0 0.1 21.0
2014-Feb-09 00:40N 31°53' W 069°15'0 0.6 21.0
2014-Feb-08 23:55N 31°52' W 069°14'0 0.0 21.0
2014-Feb-08 23:32N 31°52' W 069°14'1 1.0 21.0
2014-Feb-08 22:26N 31°53' W 069°13'1 1.2 21.0
2014-Feb-08 21:50N 31°53' W 069°13'110.8 21.0
2014-Feb-08 21:47N 31°53' W 069°13'0 0.1 21.0
2014-Feb-08 20:46N 31°53' W 069°13'2 2.9 21.0
2014-Feb-08 20:12N 31°53' W 069°12'0 0.0 21.0
2014-Feb-08 20:06N 31°53' W 069°12'0 0.0 21.0
2014-Feb-08 18:31N 31°53' W 069°12'127.0 21.0
2014-Feb-08 18:29N 31°54' W 069°12'0 0.0 21.0
2014-Feb-08 18:19N 31°54' W 069°12'0 0.0 21.0
2014-Feb-08 16:49N 31°54' W 069°12'1 1.1 21.0
2014-Feb-08 15:48N 31°54' W 069°10'0 0.0 21.0
2014-Feb-08 15:03N 31°54' W 069°10'1 1.1 21.0
2014-Feb-08 14:15N 31°55' W 069°11'0 1.8 21.0
2014-Feb-08 14:11N 31°55' W 069°11'1 0.5 21.0
2014-Feb-08 11:16N 31°56' W 069°09'0 4.1 21.0
2014-Feb-08 11:09N 31°56' W 069°09'1 0.9 21.0
2014-Feb-08 10:27N 31°56' W 069°08'117.3 21.0
2014-Feb-08 10:22N 31°56' W 069°10'1 1.9 21.0
2014-Feb-08 09:37N 31°56' W 069°08'0 1.5 21.0
2014-Feb-08 09:30N 31°56' W 069°08'0 3.3 21.0
2014-Feb-08 09:21N 31°56' W 069°08'0 0.0 21.0
2014-Feb-08 08:45N 31°56' W 069°08'214.4 21.0
2014-Feb-08 08:38N 31°56' W 069°06'0 0.0 21.0
2014-Feb-08 07:05N 31°56' W 069°06'1 8.2 21.0
2014-Feb-08 06:57N 31°57' W 069°05'0 0.0 21.0
2014-Feb-08 05:23N 31°57' W 069°05'331.7 21.0
2014-Feb-08 05:17N 31°57' W 069°01'0 0.0 21.0
2014-Feb-08 02:34N 31°57' W 069°01'117.2 21.0
2014-Feb-08 02:29N 31°57' W 068°60'0 0.2 21.0
2014-Feb-08 01:55N 31°57' W 068°60'0 0.0 21.0
2014-Feb-08 01:50N 31°57' W 068°60'0 3.1 21.0
2014-Feb-08 01:47N 31°57' W 068°60'1 1.0 21.0
2014-Feb-08 01:01N 31°57' W 068°59'0 0.9 21.0
2014-Feb-08 00:56N 31°57' W 068°59'120.3 21.0
2014-Feb-08 00:52N 31°58' W 068°58'0 0.0 21.0
2014-Feb-08 00:09N 31°58' W 068°58'0 0.0 21.0
2014-Feb-08 00:03N 31°58' W 068°58'1 0.7 21.0
2014-Feb-07 22:49N 31°59' W 068°57'1 8.5 21.0
2014-Feb-07 22:45N 31°59' W 068°57'0 0.0 21.0
2014-Feb-07 22:25N 31°59' W 068°57'0 1.1 21.0
2014-Feb-07 21:59N 31°59' W 068°56'0 0.0 21.0
2014-Feb-07 21:11N 31°59' W 068°56'2 2.6 21.0
2014-Feb-07 20:22N 32°01' W 068°54'0 0.0 21.0
2014-Feb-07 19:28N 32°01' W 068°54'1 1.2 21.0
2014-Feb-07 18:41N 32°00' W 068°55'1 9.9 21.0
2014-Feb-07 18:35N 32°01' W 068°55'0 0.0 21.0
2014-Feb-07 17:00N 32°01' W 068°55'2 2.0 21.0
2014-Feb-07 16:05N 32°03' W 068°55'110.2 21.0
2014-Feb-07 15:59N 32°02' W 068°55'0 0.0 21.0
2014-Feb-07 15:23N 32°02' W 068°55'2 2.0 21.0
2014-Feb-07 14:37N 32°00' W 068°54'0 0.0 21.0
2014-Feb-07 14:23N 32°00' W 068°54'0 0.0 21.0
2014-Feb-07 14:17N 32°00' W 068°54'0 0.0 21.0
2014-Feb-07 13:43N 32°00' W 068°54'0 0.1 21.0
2014-Feb-07 11:46N 32°00' W 068°54'1 0.6 21.0
2014-Feb-07 10:36N 32°01' W 068°55'1 2.4 21.0
2014-Feb-07 10:09N 31°60' W 068°54'0 0.7 21.0
2014-Feb-07 09:52N 32°00' W 068°54'222.9 21.0
2014-Feb-07 09:48N 31°59' W 068°53'0 0.0 21.0
2014-Feb-07 08:55N 31°59' W 068°53'112.0 21.0
2014-Feb-07 08:52N 31°59' W 068°53'0 0.0 21.0
2014-Feb-07 08:10N 31°59' W 068°53'0 0.0 21.0
2014-Feb-07 07:18N 31°59' W 068°53'113.5 21.0
2014-Feb-07 07:13N 31°60' W 068°52'0 0.0 21.0
2014-Feb-07 07:07N 31°60' W 068°52'0 0.1 21.0
2014-Feb-07 05:32N 31°60' W 068°52'227.5 21.0
2014-Feb-07 05:28N 31°60' W 068°50'0 0.0 21.0
2014-Feb-07 03:39N 31°60' W 068°50'0 0.0 21.0
2014-Feb-07 03:01N 31°60' W 068°50'1 4.9 21.0
2014-Feb-07 02:53N 32°00' W 068°49'0 0.0 21.0
2014-Feb-07 02:15N 32°00' W 068°49'0 0.9 21.0
2014-Feb-07 02:03N 32°00' W 068°49'0 0.0 21.0
2014-Feb-07 01:57N 32°00' W 068°49'0 0.4 21.0
2014-Feb-07 01:22N 32°00' W 068°49'0 0.2 21.0
2014-Feb-07 00:33N 32°00' W 068°49'0 0.0 21.0
2014-Feb-07 00:21N 32°00' W 068°49'0 0.4 21.0
2014-Feb-06 23:11N 32°00' W 068°48'0 0.0 21.0
2014-Feb-06 22:56N 32°00' W 068°48'1 0.7 21.0
2014-Feb-06 21:36N 32°01' W 068°47'1 8.1 21.0
2014-Feb-06 21:29N 32°01' W 068°49'1 0.8 21.0
2014-Feb-06 20:34N 32°01' W 068°48'0 0.0 21.0
2014-Feb-06 20:31N 32°01' W 068°48'1 1.5 21.0
2014-Feb-06 19:55N 32°01' W 068°49'1 0.9 21.0
2014-Feb-06 18:53N 32°01' W 068°48'0 0.0 21.0
2014-Feb-06 18:48N 32°01' W 068°48'1 0.3 21.0
2014-Feb-06 17:11N 32°01' W 068°48'1 0.8 21.0
2014-Feb-06 16:17N 32°02' W 068°49'1 2.2 21.0
2014-Feb-06 15:42N 32°01' W 068°47'0 0.5 21.0
2014-Feb-06 14:58N 32°02' W 068°47'0 0.5 21.0
2014-Feb-06 14:38N 32°02' W 068°48'116.7 21.0
2014-Feb-06 14:35N 32°01' W 068°47'1 1.5 21.0
2014-Feb-06 14:02N 32°02' W 068°48'1 0.3 21.0
2014-Feb-06 11:54N 32°02' W 068°48'0 0.0 21.0
2014-Feb-06 10:48N 32°02' W 068°48'1 3.6 21.0
2014-Feb-06 10:39N 32°02' W 068°48'0 0.6 21.0
2014-Feb-06 10:17N 32°02' W 068°48'0 2.4 21.0
2014-Feb-06 10:09N 32°01' W 068°48'0 0.0 21.0
2014-Feb-06 09:12N 32°01' W 068°48'0 1.4 21.0
2014-Feb-06 09:05N 32°01' W 068°48'0 3.5 21.0
2014-Feb-06 09:01N 32°01' W 068°48'0 9.8 21.0
2014-Feb-06 08:59N 32°01' W 068°48'0 0.7 21.0
2014-Feb-06 08:31N 32°01' W 068°48'0 0.0 21.0
2014-Feb-06 07:23N 32°01' W 068°48'236.2 21.0
2014-Feb-06 07:19N 32°01' W 068°45'0 0.0 21.0
2014-Feb-05 11:10N 32°01' W 068°45'0 0.8 20.9
2014-Feb-05 10:55N 32°01' W 068°45'0 0.4 20.9
2014-Feb-05 10:39N 32°01' W 068°45'0 7.5 20.9
2014-Feb-05 10:36N 32°00' W 068°45'1 0.6 20.9
2014-Feb-05 09:24N 32°00' W 068°44'0 0.5 20.9
2014-Feb-05 09:18N 32°00' W 068°44'0 0.6 20.9
2014-Feb-05 09:12N 32°00' W 068°44'1 3.5 20.9
2014-Feb-05 08:57N 32°00' W 068°45'2 1.3 20.9
2014-Feb-05 07:36N 31°60' W 068°43'10 0.5 21.0
2014-Feb-04 11:38N 32°06' W 068°35'0 0.6 20.9
2014-Feb-04 11:02N 32°06' W 068°35'0 0.4 20.9
2014-Feb-04 10:01N 32°06' W 068°34'0 0.6 20.9
2014-Feb-04 09:24N 32°06' W 068°34'119.6 20.9
2014-Feb-04 09:21N 32°06' W 068°35'2 1.4 20.9
2014-Feb-04 07:48N 32°06' W 068°33'435.7 20.9
2014-Feb-04 07:42N 32°07' W 068°29'3 0.1 20.9
2014-Feb-03 07:59N 32°07' W 068°26'774.8 20.8
2014-Feb-03 07:53N 32°09' W 068°17'0 0.0 20.8
2014-Feb-02 11:04N 32°09' W 068°17'1 0.6 20.7
2014-Feb-02 10:14N 32°09' W 068°17'1 7.4 20.7
2014-Feb-02 10:09N 32°09' W 068°16'0 0.0 20.7
2014-Feb-02 09:51N 32°09' W 068°16'025.4 20.7
2014-Feb-02 09:50N 32°09' W 068°15'1 0.7 20.7
2014-Feb-02 08:33N 32°10' W 068°15'0 0.0 20.7
2014-Feb-02 08:14N 32°10' W 068°15'0 0.0 20.8
2014-Feb-02 08:06N 32°10' W 068°15'132.6 20.8
2014-Feb-02 08:04N 32°10' W 068°14'0 0.0 20.8
2014-Feb-02 06:31N 32°10' W 068°14'749.2 20.8
2014-Feb-02 06:23N 32°13' W 068°07'0 0.0 20.8
2014-Feb-01 11:32N 32°13' W 068°07'1 0.8 20.6
2014-Feb-01 10:40N 32°13' W 068°06'0 0.4 20.6
2014-Feb-01 10:03N 32°13' W 068°06'015.6 20.6
2014-Feb-01 10:02N 32°13' W 068°05'1 5.1 20.6
2014-Feb-01 09:56N 32°13' W 068°06'1 1.1 20.6
2014-Feb-01 08:52N 32°14' W 068°05'0 0.9 20.6
2014-Feb-01 08:20N 32°14' W 068°04'0 3.6 20.6
2014-Feb-01 08:13N 32°14' W 068°04'6 4.0 20.6
2014-Feb-01 06:42N 32°17' W 067°58'   20.6

Dump ship's entire track history